sensor_id;sensor_type;location;lat;lon;timestamp;P1;P2;P0
78063;PMS5003;67429;51.596;-3.264;2023-09-19T00:00:02;4;3;
78063;PMS5003;67429;51.596;-3.264;2023-09-19T00:02:27;4;3;
78063;PMS5003;67429;51.596;-3.264;2023-09-19T00:04:52;3;3;
78063;PMS5003;67429;51.596;-3.264;2023-09-19T00:07:18;2;2;
78063;PMS5003;67429;51.596;-3.264;2023-09-19T00:09:44;7;4;
78063;PMS5003;67429;51.596;-3.264;2023-09-19T00:12:09;6;5;
78063;PMS5003;67429;51.596;-3.264;2023-09-19T00:14:35;6;6;
78063;PMS5003;67429;51.596;-3.264;2023-09-19T00:17:00;3;3;
78063;PMS5003;67429;51.596;-3.264;2023-09-19T00:19:25;4;4;
78063;PMS5003;67429;51.596;-3.264;2023-09-19T00:21:51;4;4;
78063;PMS5003;67429;51.596;-3.264;2023-09-19T00:24:17;5;4;
78063;PMS5003;67429;51.596;-3.264;2023-09-19T00:26:41;5;4;
78063;PMS5003;67429;51.596;-3.264;2023-09-19T00:29:07;5;5;
78063;PMS5003;67429;51.596;-3.264;2023-09-19T00:31:32;3;3;
78063;PMS5003;67429;51.596;-3.264;2023-09-19T00:33:58;5;4;
78063;PMS5003;67429;51.596;-3.264;2023-09-19T00:36:24;5;3;
78063;PMS5003;67429;51.596;-3.264;2023-09-19T00:38:49;5;4;
78063;PMS5003;67429;51.596;-3.264;2023-09-19T00:41:14;2;2;
78063;PMS5003;67429;51.596;-3.264;2023-09-19T00:43:40;3;2;
78063;PMS5003;67429;51.596;-3.264;2023-09-19T00:46:05;2;2;
78063;PMS5003;67429;51.596;-3.264;2023-09-19T00:48:30;3;3;
78063;PMS5003;67429;51.596;-3.264;2023-09-19T00:50:57;2;2;
78063;PMS5003;67429;51.596;-3.264;2023-09-19T00:53:22;3;2;
78063;PMS5003;67429;51.596;-3.264;2023-09-19T00:55:47;4;4;
78063;PMS5003;67429;51.596;-3.264;2023-09-19T00:58:13;1;1;
78063;PMS5003;67429;51.596;-3.264;2023-09-19T01:00:38;3;2;
78063;PMS5003;67429;51.596;-3.264;2023-09-19T01:03:03;2;2;
78063;PMS5003;67429;51.596;-3.264;2023-09-19T01:05:29;4;2;
78063;PMS5003;67429;51.596;-3.264;2023-09-19T01:07:54;2;1;
78063;PMS5003;67429;51.596;-3.264;2023-09-19T01:10:20;2;2;
78063;PMS5003;67429;51.596;-3.264;2023-09-19T01:12:48;3;3;
78063;PMS5003;67429;51.596;-3.264;2023-09-19T01:15:12;4;3;
78063;PMS5003;67429;51.596;-3.264;2023-09-19T01:17:38;1;1;
78063;PMS5003;67429;51.596;-3.264;2023-09-19T01:20:05;5;3;
78063;PMS5003;67429;51.596;-3.264;2023-09-19T01:22:30;3;2;
78063;PMS5003;67429;51.596;-3.264;2023-09-19T01:27:28;4;4;
78063;PMS5003;67429;51.596;-3.264;2023-09-19T01:29:45;2;2;
78063;PMS5003;67429;51.596;-3.264;2023-09-19T01:32:11;5;5;
78063;PMS5003;67429;51.596;-3.264;2023-09-19T01:34:44;4;3;
78063;PMS5003;67429;51.596;-3.264;2023-09-19T01:37:01;3;2;
78063;PMS5003;67429;51.596;-3.264;2023-09-19T01:39:28;3;3;
78063;PMS5003;67429;51.596;-3.264;2023-09-19T01:41:55;4;3;
78063;PMS5003;67429;51.596;-3.264;2023-09-19T01:44:21;3;3;
78063;PMS5003;67429;51.596;-3.264;2023-09-19T01:46:44;6;6;
78063;PMS5003;67429;51.596;-3.264;2023-09-19T01:49:15;4;4;
78063;PMS5003;67429;51.596;-3.264;2023-09-19T01:51:37;1;1;
78063;PMS5003;67429;51.596;-3.264;2023-09-19T01:54:00;3;2;
78063;PMS5003;67429;51.596;-3.264;2023-09-19T01:56:29;7;3;
78063;PMS5003;67429;51.596;-3.264;2023-09-19T01:58:53;2;2;
78063;PMS5003;67429;51.596;-3.264;2023-09-19T02:01:17;4;3;
78063;PMS5003;67429;51.596;-3.264;2023-09-19T02:03:42;4;4;
78063;PMS5003;67429;51.596;-3.264;2023-09-19T02:06:07;3;3;
78063;PMS5003;67429;51.596;-3.264;2023-09-19T02:08:33;1;1;
78063;PMS5003;67429;51.596;-3.264;2023-09-19T02:10:59;5;4;
78063;PMS5003;67429;51.596;-3.264;2023-09-19T02:13:24;4;4;
78063;PMS5003;67429;51.596;-3.264;2023-09-19T02:15:50;3;2;
78063;PMS5003;67429;51.596;-3.264;2023-09-19T02:18:15;4;3;
78063;PMS5003;67429;51.596;-3.264;2023-09-19T02:20:41;4;4;
78063;PMS5003;67429;51.596;-3.264;2023-09-19T02:23:06;4;3;
78063;PMS5003;67429;51.596;-3.264;2023-09-19T02:25:31;5;3;
78063;PMS5003;67429;51.596;-3.264;2023-09-19T02:27:57;4;2;
78063;PMS5003;67429;51.596;-3.264;2023-09-19T02:30:23;5;4;
78063;PMS5003;67429;51.596;-3.264;2023-09-19T02:32:49;4;3;
78063;PMS5003;67429;51.596;-3.264;2023-09-19T02:35:13;5;4;
78063;PMS5003;67429;51.596;-3.264;2023-09-19T02:37:39;2;2;
78063;PMS5003;67429;51.596;-3.264;2023-09-19T02:40:05;4;3;
78063;PMS5003;67429;51.596;-3.264;2023-09-19T02:42:29;5;4;
78063;PMS5003;67429;51.596;-3.264;2023-09-19T02:44:55;3;3;
78063;PMS5003;67429;51.596;-3.264;2023-09-19T02:47:20;3;3;
78063;PMS5003;67429;51.596;-3.264;2023-09-19T02:49:46;2;1;
78063;PMS5003;67429;51.596;-3.264;2023-09-19T02:52:11;4;3;
78063;PMS5003;67429;51.596;-3.264;2023-09-19T02:54:37;4;4;
78063;PMS5003;67429;51.596;-3.264;2023-09-19T02:57:02;3;2;
78063;PMS5003;67429;51.596;-3.264;2023-09-19T02:59:27;4;4;
78063;PMS5003;67429;51.596;-3.264;2023-09-19T03:01:53;2;2;
78063;PMS5003;67429;51.596;-3.264;2023-09-19T03:04:19;4;3;
78063;PMS5003;67429;51.596;-3.264;2023-09-19T03:06:44;5;2;
78063;PMS5003;67429;51.596;-3.264;2023-09-19T03:09:10;3;3;
78063;PMS5003;67429;51.596;-3.264;2023-09-19T03:11:36;4;3;
78063;PMS5003;67429;51.596;-3.264;2023-09-19T03:14:01;2;2;
78063;PMS5003;67429;51.596;-3.264;2023-09-19T03:16:26;2;1;
78063;PMS5003;67429;51.596;-3.264;2023-09-19T03:18:53;2;2;
78063;PMS5003;67429;51.596;-3.264;2023-09-19T03:21:17;2;2;
78063;PMS5003;67429;51.596;-3.264;2023-09-19T03:23:43;1;1;
78063;PMS5003;67429;51.596;-3.264;2023-09-19T03:26:08;3;3;
78063;PMS5003;67429;51.596;-3.264;2023-09-19T03:28:35;2;1;
78063;PMS5003;67429;51.596;-3.264;2023-09-19T03:31:00;1;1;
78063;PMS5003;67429;51.596;-3.264;2023-09-19T03:33:24;1;1;
78063;PMS5003;67429;51.596;-3.264;2023-09-19T03:35:51;2;2;
78063;PMS5003;67429;51.596;-3.264;2023-09-19T03:38:16;2;1;
78063;PMS5003;67429;51.596;-3.264;2023-09-19T03:40:41;1;1;
78063;PMS5003;67429;51.596;-3.264;2023-09-19T03:43:08;1;1;
78063;PMS5003;67429;51.596;-3.264;2023-09-19T03:45:34;1;1;
78063;PMS5003;67429;51.596;-3.264;2023-09-19T03:47:59;0;0;
78063;PMS5003;67429;51.596;-3.264;2023-09-19T03:50:23;1;1;
78063;PMS5003;67429;51.596;-3.264;2023-09-19T03:52:49;1;1;
78063;PMS5003;67429;51.596;-3.264;2023-09-19T03:55:14;1;1;
78063;PMS5003;67429;51.596;-3.264;2023-09-19T03:57:40;1;1;
78063;PMS5003;67429;51.596;-3.264;2023-09-19T04:00:06;1;1;
78063;PMS5003;67429;51.596;-3.264;2023-09-19T04:02:32;3;1;
78063;PMS5003;67429;51.596;-3.264;2023-09-19T04:04:57;2;1;
78063;PMS5003;67429;51.596;-3.264;2023-09-19T04:07:22;2;2;
78063;PMS5003;67429;51.596;-3.264;2023-09-19T04:09:47;3;2;
78063;PMS5003;67429;51.596;-3.264;2023-09-19T04:12:15;4;4;
78063;PMS5003;67429;51.596;-3.264;2023-09-19T04:14:39;5;5;
78063;PMS5003;67429;51.596;-3.264;2023-09-19T04:17:04;4;4;
78063;PMS5003;67429;51.596;-3.264;2023-09-19T04:19:30;3;2;
78063;PMS5003;67429;51.596;-3.264;2023-09-19T04:21:55;6;5;
78063;PMS5003;67429;51.596;-3.264;2023-09-19T04:24:22;5;4;
78063;PMS5003;67429;51.596;-3.264;2023-09-19T04:26:46;6;5;
78063;PMS5003;67429;51.596;-3.264;2023-09-19T04:29:12;5;3;
78063;PMS5003;67429;51.596;-3.264;2023-09-19T04:31:37;5;4;
78063;PMS5003;67429;51.596;-3.264;2023-09-19T04:34:03;5;4;
78063;PMS5003;67429;51.596;-3.264;2023-09-19T04:36:29;5;5;
78063;PMS5003;67429;51.596;-3.264;2023-09-19T04:38:54;6;5;
78063;PMS5003;67429;51.596;-3.264;2023-09-19T04:41:19;10;5;
78063;PMS5003;67429;51.596;-3.264;2023-09-19T04:43:45;5;5;
78063;PMS5003;67429;51.596;-3.264;2023-09-19T04:46:11;6;6;
78063;PMS5003;67429;51.596;-3.264;2023-09-19T04:48:36;10;10;
78063;PMS5003;67429;51.596;-3.264;2023-09-19T04:51:01;8;8;
78063;PMS5003;67429;51.596;-3.264;2023-09-19T04:53:28;6;6;
78063;PMS5003;67429;51.596;-3.264;2023-09-19T04:55:52;6;6;
78063;PMS5003;67429;51.596;-3.264;2023-09-19T04:58:18;7;6;
78063;PMS5003;67429;51.596;-3.264;2023-09-19T05:00:43;8;7;
78063;PMS5003;67429;51.596;-3.264;2023-09-19T05:03:09;9;9;
78063;PMS5003;67429;51.596;-3.264;2023-09-19T05:05:34;8;7;
78063;PMS5003;67429;51.596;-3.264;2023-09-19T05:08:00;9;7;
78063;PMS5003;67429;51.596;-3.264;2023-09-19T05:10:25;10;8;
78063;PMS5003;67429;51.596;-3.264;2023-09-19T05:12:52;10;10;
78063;PMS5003;67429;51.596;-3.264;2023-09-19T05:15:16;9;9;
78063;PMS5003;67429;51.596;-3.264;2023-09-19T05:17:42;7;6;
78063;PMS5003;67429;51.596;-3.264;2023-09-19T05:20:07;11;10;
78063;PMS5003;67429;51.596;-3.264;2023-09-19T05:22:33;9;8;
78063;PMS5003;67429;51.596;-3.264;2023-09-19T05:24:58;8;8;
78063;PMS5003;67429;51.596;-3.264;2023-09-19T05:27:25;12;9;
78063;PMS5003;67429;51.596;-3.264;2023-09-19T05:29:49;7;7;
78063;PMS5003;67429;51.596;-3.264;2023-09-19T05:32:14;8;8;
78063;PMS5003;67429;51.596;-3.264;2023-09-19T05:34:40;9;8;
78063;PMS5003;67429;51.596;-3.264;2023-09-19T05:37:05;10;10;
78063;PMS5003;67429;51.596;-3.264;2023-09-19T05:39:33;12;10;
78063;PMS5003;67429;51.596;-3.264;2023-09-19T05:41:56;8;7;
78063;PMS5003;67429;51.596;-3.264;2023-09-19T05:44:22;9;9;
78063;PMS5003;67429;51.596;-3.264;2023-09-19T05:46:47;9;9;
78063;PMS5003;67429;51.596;-3.264;2023-09-19T05:49:13;13;9;
78063;PMS5003;67429;51.596;-3.264;2023-09-19T05:51:38;11;10;
78063;PMS5003;67429;51.596;-3.264;2023-09-19T05:54:04;8;8;
78063;PMS5003;67429;51.596;-3.264;2023-09-19T05:56:29;10;9;
78063;PMS5003;67429;51.596;-3.264;2023-09-19T05:58:55;10;9;
78063;PMS5003;67429;51.596;-3.264;2023-09-19T06:01:20;8;8;
78063;PMS5003;67429;51.596;-3.264;2023-09-19T06:03:47;12;11;
78063;PMS5003;67429;51.596;-3.264;2023-09-19T06:06:12;11;11;
78063;PMS5003;67429;51.596;-3.264;2023-09-19T06:08:36;8;8;
78063;PMS5003;67429;51.596;-3.264;2023-09-19T06:11:02;11;10;
78063;PMS5003;67429;51.596;-3.264;2023-09-19T06:13:28;11;9;
78063;PMS5003;67429;51.596;-3.264;2023-09-19T06:15:53;8;8;
78063;PMS5003;67429;51.596;-3.264;2023-09-19T06:18:18;7;6;
78063;PMS5003;67429;51.596;-3.264;2023-09-19T06:20:44;9;9;
78063;PMS5003;67429;51.596;-3.264;2023-09-19T06:23:10;9;9;
78063;PMS5003;67429;51.596;-3.264;2023-09-19T06:25:35;9;8;
78063;PMS5003;67429;51.596;-3.264;2023-09-19T06:28:00;8;8;
78063;PMS5003;67429;51.596;-3.264;2023-09-19T06:30:26;6;6;
78063;PMS5003;67429;51.596;-3.264;2023-09-19T06:32:55;9;8;
78063;PMS5003;67429;51.596;-3.264;2023-09-19T06:35:16;13;12;
78063;PMS5003;67429;51.596;-3.264;2023-09-19T06:37:42;9;8;
78063;PMS5003;67429;51.596;-3.264;2023-09-19T06:40:08;11;9;
78063;PMS5003;67429;51.596;-3.264;2023-09-19T06:42:33;13;10;
78063;PMS5003;67429;51.596;-3.264;2023-09-19T06:44:59;8;8;
78063;PMS5003;67429;51.596;-3.264;2023-09-19T06:47:24;8;8;
78063;PMS5003;67429;51.596;-3.264;2023-09-19T06:49:49;13;11;
78063;PMS5003;67429;51.596;-3.264;2023-09-19T06:52:14;11;10;
78063;PMS5003;67429;51.596;-3.264;2023-09-19T06:54:41;13;12;
78063;PMS5003;67429;51.596;-3.264;2023-09-19T06:57:06;8;8;
78063;PMS5003;67429;51.596;-3.264;2023-09-19T06:59:31;13;12;
78063;PMS5003;67429;51.596;-3.264;2023-09-19T07:01:57;12;11;
78063;PMS5003;67429;51.596;-3.264;2023-09-19T07:04:23;11;8;
78063;PMS5003;67429;51.596;-3.264;2023-09-19T07:06:49;10;8;
78063;PMS5003;67429;51.596;-3.264;2023-09-19T07:09:14;12;12;
78063;PMS5003;67429;51.596;-3.264;2023-09-19T07:11:39;10;9;
78063;PMS5003;67429;51.596;-3.264;2023-09-19T07:14:05;15;11;
78063;PMS5003;67429;51.596;-3.264;2023-09-19T07:16:30;8;7;
78063;PMS5003;67429;51.596;-3.264;2023-09-19T07:18:56;8;8;
78063;PMS5003;67429;51.596;-3.264;2023-09-19T07:21:21;9;8;
78063;PMS5003;67429;51.596;-3.264;2023-09-19T07:23:46;6;6;
78063;PMS5003;67429;51.596;-3.264;2023-09-19T07:26:12;10;9;
78063;PMS5003;67429;51.596;-3.264;2023-09-19T07:28:37;9;7;
78063;PMS5003;67429;51.596;-3.264;2023-09-19T07:31:03;7;7;
78063;PMS5003;67429;51.596;-3.264;2023-09-19T07:33:28;7;7;
78063;PMS5003;67429;51.596;-3.264;2023-09-19T07:35:54;11;9;
78063;PMS5003;67429;51.596;-3.264;2023-09-19T07:38:19;10;9;
78063;PMS5003;67429;51.596;-3.264;2023-09-19T07:40:46;7;6;
78063;PMS5003;67429;51.596;-3.264;2023-09-19T07:43:10;8;7;
78063;PMS5003;67429;51.596;-3.264;2023-09-19T07:45:36;5;4;
78063;PMS5003;67429;51.596;-3.264;2023-09-19T07:48:01;7;5;
78063;PMS5003;67429;51.596;-3.264;2023-09-19T07:50:27;5;4;
78063;PMS5003;67429;51.596;-3.264;2023-09-19T07:52:54;6;5;
78063;PMS5003;67429;51.596;-3.264;2023-09-19T07:55:19;6;5;
78063;PMS5003;67429;51.596;-3.264;2023-09-19T07:57:43;5;4;
78063;PMS5003;67429;51.596;-3.264;2023-09-19T08:00:09;7;5;
78063;PMS5003;67429;51.596;-3.264;2023-09-19T08:02:35;6;6;
78063;PMS5003;67429;51.596;-3.264;2023-09-19T08:05:00;7;5;
78063;PMS5003;67429;51.596;-3.264;2023-09-19T08:07:25;4;4;
78063;PMS5003;67429;51.596;-3.264;2023-09-19T08:09:51;6;5;
78063;PMS5003;67429;51.596;-3.264;2023-09-19T08:12:18;5;5;
78063;PMS5003;67429;51.596;-3.264;2023-09-19T08:14:42;8;6;
78063;PMS5003;67429;51.596;-3.264;2023-09-19T08:17:08;5;5;
78063;PMS5003;67429;51.596;-3.264;2023-09-19T08:19:33;6;5;
78063;PMS5003;67429;51.596;-3.264;2023-09-19T08:21:59;5;5;
78063;PMS5003;67429;51.596;-3.264;2023-09-19T08:24:26;5;5;
78063;PMS5003;67429;51.596;-3.264;2023-09-19T08:26:49;6;5;
78063;PMS5003;67429;51.596;-3.264;2023-09-19T08:29:16;5;5;
78063;PMS5003;67429;51.596;-3.264;2023-09-19T08:31:40;12;11;
78063;PMS5003;67429;51.596;-3.264;2023-09-19T08:34:06;5;4;
78063;PMS5003;67429;51.596;-3.264;2023-09-19T08:36:31;5;5;
78063;PMS5003;67429;51.596;-3.264;2023-09-19T08:38:57;5;5;
78063;PMS5003;67429;51.596;-3.264;2023-09-19T08:41:22;5;4;
78063;PMS5003;67429;51.596;-3.264;2023-09-19T08:43:48;3;3;
78063;PMS5003;67429;51.596;-3.264;2023-09-19T08:46:15;4;4;
78063;PMS5003;67429;51.596;-3.264;2023-09-19T08:48:41;3;3;
78063;PMS5003;67429;51.596;-3.264;2023-09-19T08:51:06;3;3;
78063;PMS5003;67429;51.596;-3.264;2023-09-19T08:53:31;3;3;
78063;PMS5003;67429;51.596;-3.264;2023-09-19T08:55:55;2;2;
78063;PMS5003;67429;51.596;-3.264;2023-09-19T08:58:21;2;2;
78063;PMS5003;67429;51.596;-3.264;2023-09-19T09:00:47;2;2;
78063;PMS5003;67429;51.596;-3.264;2023-09-19T09:03:14;2;2;
78063;PMS5003;67429;51.596;-3.264;2023-09-19T09:05:38;4;4;
78063;PMS5003;67429;51.596;-3.264;2023-09-19T09:08:03;2;2;
78063;PMS5003;67429;51.596;-3.264;2023-09-19T09:10:29;2;2;
78063;PMS5003;67429;51.596;-3.264;2023-09-19T09:12:54;2;2;
78063;PMS5003;67429;51.596;-3.264;2023-09-19T09:15:20;1;1;
78063;PMS5003;67429;51.596;-3.264;2023-09-19T09:17:46;2;2;
78063;PMS5003;67429;51.596;-3.264;2023-09-19T09:20:11;3;2;
78063;PMS5003;67429;51.596;-3.264;2023-09-19T09:22:38;1;1;
78063;PMS5003;67429;51.596;-3.264;2023-09-19T09:25:02;2;2;
78063;PMS5003;67429;51.596;-3.264;2023-09-19T09:27:27;2;2;
78063;PMS5003;67429;51.596;-3.264;2023-09-19T09:29:53;3;2;
78063;PMS5003;67429;51.596;-3.264;2023-09-19T09:32:19;2;2;
78063;PMS5003;67429;51.596;-3.264;2023-09-19T09:34:43;4;4;
78063;PMS5003;67429;51.596;-3.264;2023-09-19T09:37:12;3;2;
78063;PMS5003;67429;51.596;-3.264;2023-09-19T09:39:34;3;3;
78063;PMS5003;67429;51.596;-3.264;2023-09-19T09:42:00;2;1;
78063;PMS5003;67429;51.596;-3.264;2023-09-19T09:44:26;2;1;
78063;PMS5003;67429;51.596;-3.264;2023-09-19T09:46:51;2;2;
78063;PMS5003;67429;51.596;-3.264;2023-09-19T09:51:43;1;1;
78063;PMS5003;67429;51.596;-3.264;2023-09-19T09:54:12;1;1;
78063;PMS5003;67429;51.596;-3.264;2023-09-19T09:56:33;1;1;
78063;PMS5003;67429;51.596;-3.264;2023-09-19T09:58:59;3;2;
78063;PMS5003;67429;51.596;-3.264;2023-09-19T10:01:24;1;1;
78063;PMS5003;67429;51.596;-3.264;2023-09-19T10:03:49;2;1;
78063;PMS5003;67429;51.596;-3.264;2023-09-19T10:06:15;2;1;
78063;PMS5003;67429;51.596;-3.264;2023-09-19T10:08:40;1;0;
78063;PMS5003;67429;51.596;-3.264;2023-09-19T10:13:31;0;0;
78063;PMS5003;67429;51.596;-3.264;2023-09-19T10:15:58;1;1;
78063;PMS5003;67429;51.596;-3.264;2023-09-19T10:18:23;1;1;
78063;PMS5003;67429;51.596;-3.264;2023-09-19T10:20:48;2;2;
78063;PMS5003;67429;51.596;-3.264;2023-09-19T10:23:14;3;2;
78063;PMS5003;67429;51.596;-3.264;2023-09-19T10:25:40;2;2;
78063;PMS5003;67429;51.596;-3.264;2023-09-19T10:28:06;2;1;
78063;PMS5003;67429;51.596;-3.264;2023-09-19T10:30:31;3;2;
78063;PMS5003;67429;51.596;-3.264;2023-09-19T10:32:57;1;1;
78063;PMS5003;67429;51.596;-3.264;2023-09-19T10:35:22;1;0;
78063;PMS5003;67429;51.596;-3.264;2023-09-19T10:37:48;2;0;
78063;PMS5003;67429;51.596;-3.264;2023-09-19T10:40:12;1;1;
78063;PMS5003;67429;51.596;-3.264;2023-09-19T10:42:38;2;2;
78063;PMS5003;67429;51.596;-3.264;2023-09-19T10:45:04;2;2;
78063;PMS5003;67429;51.596;-3.264;2023-09-19T10:47:29;0;0;
78063;PMS5003;67429;51.596;-3.264;2023-09-19T10:49:55;2;1;
78063;PMS5003;67429;51.596;-3.264;2023-09-19T10:52:22;0;0;
78063;PMS5003;67429;51.596;-3.264;2023-09-19T10:54:45;2;1;
78063;PMS5003;67429;51.596;-3.264;2023-09-19T10:57:10;3;3;
78063;PMS5003;67429;51.596;-3.264;2023-09-19T10:59:36;4;4;
78063;PMS5003;67429;51.596;-3.264;2023-09-19T11:04:27;5;4;
78063;PMS5003;67429;51.596;-3.264;2023-09-19T11:06:59;6;5;
78063;PMS5003;67429;51.596;-3.264;2023-09-19T11:09:17;9;8;
78063;PMS5003;67429;51.596;-3.264;2023-09-19T11:11:44;5;4;
78063;PMS5003;67429;51.596;-3.264;2023-09-19T11:14:13;7;6;
78063;PMS5003;67429;51.596;-3.264;2023-09-19T11:16:34;7;6;
78063;PMS5003;67429;51.596;-3.264;2023-09-19T11:19:00;14;13;
78063;PMS5003;67429;51.596;-3.264;2023-09-19T11:28:42;11;11;
78063;PMS5003;67429;51.596;-3.264;2023-09-19T11:33:33;9;7;
78063;PMS5003;67429;51.596;-3.264;2023-09-19T11:35:58;12;9;
78063;PMS5003;67429;51.596;-3.264;2023-09-19T11:48:06;12;12;
78063;PMS5003;67429;51.596;-3.264;2023-09-19T11:50:31;9;7;
78063;PMS5003;67429;51.596;-3.264;2023-09-19T11:52:56;10;9;
78063;PMS5003;67429;51.596;-3.264;2023-09-19T11:55:21;8;6;
78063;PMS5003;67429;51.596;-3.264;2023-09-19T11:57:47;11;10;
78063;PMS5003;67429;51.596;-3.264;2023-09-19T12:00:17;9;9;
78063;PMS5003;67429;51.596;-3.264;2023-09-19T12:02:38;8;6;
78063;PMS5003;67429;51.596;-3.264;2023-09-19T12:05:03;7;7;
78063;PMS5003;67429;51.596;-3.264;2023-09-19T12:07:28;7;6;
78063;PMS5003;67429;51.596;-3.264;2023-09-19T12:12:21;4;4;
78063;PMS5003;67429;51.596;-3.264;2023-09-19T12:14:49;4;4;
78063;PMS5003;67429;51.596;-3.264;2023-09-19T12:17:10;9;7;
78063;PMS5003;67429;51.596;-3.264;2023-09-19T12:19:36;5;5;
78063;PMS5003;67429;51.596;-3.264;2023-09-19T12:22:03;4;4;
78063;PMS5003;67429;51.596;-3.264;2023-09-19T12:24:27;6;5;
78063;PMS5003;67429;51.596;-3.264;2023-09-19T12:26:52;3;3;
78063;PMS5003;67429;51.596;-3.264;2023-09-19T12:29:18;4;4;
78063;PMS5003;67429;51.596;-3.264;2023-09-19T12:31:49;7;6;
78063;PMS5003;67429;51.596;-3.264;2023-09-19T12:34:09;6;6;
78063;PMS5003;67429;51.596;-3.264;2023-09-19T12:36:34;4;4;
78063;PMS5003;67429;51.596;-3.264;2023-09-19T12:38:59;6;6;
78063;PMS5003;67429;51.596;-3.264;2023-09-19T12:41:25;8;5;
78063;PMS5003;67429;51.596;-3.264;2023-09-19T12:43:51;5;5;
78063;PMS5003;67429;51.596;-3.264;2023-09-19T12:48:41;6;5;
78063;PMS5003;67429;51.596;-3.264;2023-09-19T12:51:08;6;5;
78063;PMS5003;67429;51.596;-3.264;2023-09-19T12:53:32;9;7;
78063;PMS5003;67429;51.596;-3.264;2023-09-19T12:55:58;6;4;
78063;PMS5003;67429;51.596;-3.264;2023-09-19T12:58:23;8;5;
78063;PMS5003;67429;51.596;-3.264;2023-09-19T13:00:48;7;6;
78063;PMS5003;67429;51.596;-3.264;2023-09-19T13:03:18;4;4;
78063;PMS5003;67429;51.596;-3.264;2023-09-19T13:05:48;6;6;
78063;PMS5003;67429;51.596;-3.264;2023-09-19T13:10:30;8;6;
78063;PMS5003;67429;51.596;-3.264;2023-09-19T13:12:55;6;4;
78063;PMS5003;67429;51.596;-3.264;2023-09-19T13:15:21;6;6;
78063;PMS5003;67429;51.596;-3.264;2023-09-19T13:17:47;5;4;
78063;PMS5003;67429;51.596;-3.264;2023-09-19T13:22:38;6;5;
78063;PMS5003;67429;51.596;-3.264;2023-09-19T13:25:04;7;6;
78063;PMS5003;67429;51.596;-3.264;2023-09-19T13:27:29;4;4;
78063;PMS5003;67429;51.596;-3.264;2023-09-19T13:29:54;3;2;
78063;PMS5003;67429;51.596;-3.264;2023-09-19T13:32:19;4;3;
78063;PMS5003;67429;51.596;-3.264;2023-09-19T13:34:44;2;2;
78063;PMS5003;67429;51.596;-3.264;2023-09-19T13:37:10;2;1;
78063;PMS5003;67429;51.596;-3.264;2023-09-19T13:39:36;1;1;
78063;PMS5003;67429;51.596;-3.264;2023-09-19T13:42:01;1;1;
78063;PMS5003;67429;51.596;-3.264;2023-09-19T13:44:27;0;0;
78063;PMS5003;67429;51.596;-3.264;2023-09-19T13:46:54;0;0;
78063;PMS5003;67429;51.596;-3.264;2023-09-19T13:49:18;0;0;
78063;PMS5003;67429;51.596;-3.264;2023-09-19T13:51:43;0;0;
78063;PMS5003;67429;51.596;-3.264;2023-09-19T13:54:10;0;0;
78063;PMS5003;67429;51.596;-3.264;2023-09-19T13:56:34;0;0;
78063;PMS5003;67429;51.596;-3.264;2023-09-19T13:58:59;1;1;
78063;PMS5003;67429;51.596;-3.264;2023-09-19T14:01:25;0;0;
78063;PMS5003;67429;51.596;-3.264;2023-09-19T14:03:51;1;1;
78063;PMS5003;67429;51.596;-3.264;2023-09-19T14:06:16;1;1;
78063;PMS5003;67429;51.596;-3.264;2023-09-19T14:08:41;2;2;
78063;PMS5003;67429;51.596;-3.264;2023-09-19T14:11:07;2;1;
78063;PMS5003;67429;51.596;-3.264;2023-09-19T14:13:32;2;2;
78063;PMS5003;67429;51.596;-3.264;2023-09-19T14:16:03;4;4;
78063;PMS5003;67429;51.596;-3.264;2023-09-19T14:18:23;4;4;
78063;PMS5003;67429;51.596;-3.264;2023-09-19T14:20:49;3;2;
78063;PMS5003;67429;51.596;-3.264;2023-09-19T14:23:16;5;5;
78063;PMS5003;67429;51.596;-3.264;2023-09-19T14:25:40;3;3;
78063;PMS5003;67429;51.596;-3.264;2023-09-19T14:28:06;3;2;
78063;PMS5003;67429;51.596;-3.264;2023-09-19T14:30:31;1;1;
78063;PMS5003;67429;51.596;-3.264;2023-09-19T14:32:57;0;0;
78063;PMS5003;67429;51.596;-3.264;2023-09-19T14:35:22;0;0;
78063;PMS5003;67429;51.596;-3.264;2023-09-19T14:37:48;0;0;
78063;PMS5003;67429;51.596;-3.264;2023-09-19T14:40:13;0;0;
78063;PMS5003;67429;51.596;-3.264;2023-09-19T14:42:39;0;0;
78063;PMS5003;67429;51.596;-3.264;2023-09-19T14:45:04;0;0;
78063;PMS5003;67429;51.596;-3.264;2023-09-19T14:47:30;1;1;
78063;PMS5003;67429;51.596;-3.264;2023-09-19T14:49:55;1;1;
78063;PMS5003;67429;51.596;-3.264;2023-09-19T14:52:20;3;3;
78063;PMS5003;67429;51.596;-3.264;2023-09-19T14:54:46;4;4;
78063;PMS5003;67429;51.596;-3.264;2023-09-19T14:57:12;4;4;
78063;PMS5003;67429;51.596;-3.264;2023-09-19T14:59:37;4;3;
78063;PMS5003;67429;51.596;-3.264;2023-09-19T15:02:04;5;3;
78063;PMS5003;67429;51.596;-3.264;2023-09-19T15:04:28;6;6;
78063;PMS5003;67429;51.596;-3.264;2023-09-19T15:06:54;8;7;
78063;PMS5003;67429;51.596;-3.264;2023-09-19T15:09:19;4;4;
78063;PMS5003;67429;51.596;-3.264;2023-09-19T15:11:44;5;5;
78063;PMS5003;67429;51.596;-3.264;2023-09-19T15:14:10;4;4;
78063;PMS5003;67429;51.596;-3.264;2023-09-19T15:16:35;7;6;
78063;PMS5003;67429;51.596;-3.264;2023-09-19T15:19:00;8;6;
78063;PMS5003;67429;51.596;-3.264;2023-09-19T15:21:26;8;7;
78063;PMS5003;67429;51.596;-3.264;2023-09-19T15:23:52;10;8;
78063;PMS5003;67429;51.596;-3.264;2023-09-19T15:26:17;7;5;
78063;PMS5003;67429;51.596;-3.264;2023-09-19T15:28:42;10;9;
78063;PMS5003;67429;51.596;-3.264;2023-09-19T15:31:08;7;7;
78063;PMS5003;67429;51.596;-3.264;2023-09-19T15:33:33;8;7;
78063;PMS5003;67429;51.596;-3.264;2023-09-19T15:36:00;8;7;
78063;PMS5003;67429;51.596;-3.264;2023-09-19T15:38:24;7;6;
78063;PMS5003;67429;51.596;-3.264;2023-09-19T15:40:49;5;4;
78063;PMS5003;67429;51.596;-3.264;2023-09-19T15:43:14;9;7;
78063;PMS5003;67429;51.596;-3.264;2023-09-19T15:45:40;6;4;
78063;PMS5003;67429;51.596;-3.264;2023-09-19T15:48:06;4;4;
78063;PMS5003;67429;51.596;-3.264;2023-09-19T15:50:31;6;6;
78063;PMS5003;67429;51.596;-3.264;2023-09-19T15:52:56;5;5;
78063;PMS5003;67429;51.596;-3.264;2023-09-19T15:55:22;8;7;
78063;PMS5003;67429;51.596;-3.264;2023-09-19T15:57:47;3;3;
78063;PMS5003;67429;51.596;-3.264;2023-09-19T16:00:13;5;4;
78063;PMS5003;67429;51.596;-3.264;2023-09-19T16:05:04;6;6;
78063;PMS5003;67429;51.596;-3.264;2023-09-19T16:07:28;6;5;
78063;PMS5003;67429;51.596;-3.264;2023-09-19T16:09:54;7;7;
78063;PMS5003;67429;51.596;-3.264;2023-09-19T16:12:19;4;4;
78063;PMS5003;67429;51.596;-3.264;2023-09-19T16:14:46;8;6;
78063;PMS5003;67429;51.596;-3.264;2023-09-19T16:17:10;5;5;
78063;PMS5003;67429;51.596;-3.264;2023-09-19T16:19:36;5;4;
78063;PMS5003;67429;51.596;-3.264;2023-09-19T16:22:06;8;8;
78063;PMS5003;67429;51.596;-3.264;2023-09-19T16:24:27;10;8;
78063;PMS5003;67429;51.596;-3.264;2023-09-19T16:26:52;6;5;
78063;PMS5003;67429;51.596;-3.264;2023-09-19T16:29:19;8;8;
78063;PMS5003;67429;51.596;-3.264;2023-09-19T16:31:57;9;7;
78063;PMS5003;67429;51.596;-3.264;2023-09-19T16:36:34;9;8;
78063;PMS5003;67429;51.596;-3.264;2023-09-19T16:46:16;7;6;
78063;PMS5003;67429;51.596;-3.264;2023-09-19T16:48:41;8;6;
78063;PMS5003;67429;51.596;-3.264;2023-09-19T16:51:15;6;5;
78063;PMS5003;67429;51.596;-3.264;2023-09-19T16:53:32;5;3;
78063;PMS5003;67429;51.596;-3.264;2023-09-19T16:56:02;4;4;
78063;PMS5003;67429;51.596;-3.264;2023-09-19T16:58:22;6;5;
78063;PMS5003;67429;51.596;-3.264;2023-09-19T17:03:26;5;4;
78063;PMS5003;67429;51.596;-3.264;2023-09-19T17:05:39;2;2;
78063;PMS5003;67429;51.596;-3.264;2023-09-19T17:08:05;7;7;
78063;PMS5003;67429;51.596;-3.264;2023-09-19T17:12:56;4;4;